Latest Weather Observations for Port Fairy

IDV60801

Issued at 1:32 pm EDT Saturday 18 November 2017 (issued every 30 minutes, with the page automatically refreshed every 10 minutes)

About weather observations | Map of weather stations | Latest weather observations for VIC | Other Formats
Station Details ID: 090175 Name: PORT FAIRY AWS Lat: -38.39 Lon: 142.23 Height: 10.0 m
Data from the previous 72 hours. | See also: Recent months at Port Fairy
Date/Time
EDT
Temp
°C
App
Temp
°C
Dew
Point
°C
Rel
Hum
%
Delta-T
°C
Wind Press
QNH
hPa
Press
MSL
hPa
Rain since
9am
mm
Dir  Spd
km/h
Gust
km/h
Spd
kts
Gust
kts
18/01:30pm 17.7 18.5 17.4 98 0.2 S 9 13 5 7 1016.8 1016.8 0.0
18/01:00pm 17.2 17.9 17.0 99 0.1 S 9 13 5 7 1016.9 1016.9 0.0
18/12:30pm 17.0 17.2 16.8 99 0.1 SSW 11 15 6 8 1016.9 1016.9 0.0
18/12:00pm 17.2 17.5 17.0 99 0.1 SSW 11 15 6 8 1016.7 1016.7 0.0
18/11:30am 16.9 17.9 16.9 100 0.0 SSW 7 11 4 6 1016.5 1016.5 0.0
18/11:00am 16.8 16.6 16.8 100 0.0 SSW 13 20 7 11 1016.9 1016.9 0.0
18/10:30am 17.3 18.1 17.3 100 0.0 SSW 9 15 5 8 1016.5 1016.5 0.0
18/10:00am 16.6 17.7 16.6 100 0.0 S 6 9 3 5 1016.2 1016.2 0.0
18/09:30am 17.7 19.2 17.7 100 0.0 NNE 6 9 3 5 1016.3 1016.3 0.0
18/09:00am 15.9 17.1 15.9 100 0.0 NW 4 6 2 3 1016.2 1016.2 1.6
18/08:30am 14.7 15.8 14.7 100 0.0 N 2 4 1 2 1015.9 1015.9 1.6
18/08:00am 14.1 14.6 14.1 100 0.0 NW 4 7 2 4 1015.6 1015.6 1.6
18/07:30am 13.7 14.9 13.7 100 0.0 CALM 0 4 0 2 1015.3 1015.3 1.6
18/07:00am 13.5 14.2 13.5 100 0.0 NNW 2 4 1 2 1015.1 1015.1 1.6
18/06:30am 13.2 13.4 13.2 100 0.0 NNW 4 6 2 3 1015.0 1015.0 1.6
18/06:00am 13.1 13.3 13.1 100 0.0 NW 4 6 2 3 1014.7 1014.7 1.6
18/05:30am 12.8 13.3 12.8 100 0.0 NW 2 4 1 2 1014.3 1014.3 1.6
18/05:00am 12.6 13.0 12.6 100 0.0 NW 2 4 1 2 1014.1 1014.1 1.6
18/04:30am 12.8 12.9 12.8 100 0.0 NW 4 6 2 3 1014.1 1014.1 1.6
18/04:00am 13.4 13.7 13.4 100 0.0 NNE 4 6 2 3 1013.9 1013.9 1.6
18/03:30am 13.6 14.0 13.6 100 0.0 NW 4 6 2 3 1013.8 1013.8 1.6
18/03:00am 14.2 14.8 14.2 100 0.0 WNW 4 6 2 3 1013.9 1013.9 1.6
18/02:30am 14.7 15.5 14.7 100 0.0 WNW 4 6 2 3 1014.0 1014.0 1.6
18/02:00am 15.2 16.9 15.2 100 0.0 CALM 0 4 0 2 1014.1 1014.1 1.6
18/01:30am 15.4 17.2 15.4 100 0.0 CALM 0 0 0 0 1014.4 1014.4 1.6
18/01:00am 15.2 16.1 15.0 99 0.1 SSW 4 6 2 3 1014.6 1014.6 1.6
18/12:30am 14.4 14.4 14.2 99 0.1 W 7 9 4 5 1014.5 1014.5 1.6
18/12:00am 14.2 14.3 14.0 99 0.1 WNW 6 9 3 5 1014.5 1014.5 1.6
 
Date/Time
EDT
Temp
°C
App
Temp
°C
Dew
Point
°C
Rel
Hum
%
Delta-T
°C
Wind Press
QNH
hPa
Press
MSL
hPa
Rain since
9am
mm
Dir  Spd
km/h
Gust
km/h
Spd
kts
Gust
kts
17/11:30pm 15.1 15.9 14.8 98 0.2 ESE 4 9 2 5 1014.3 1014.3 1.6
17/11:00pm 15.3 15.5 14.8 97 0.3 NNE 7 9 4 5 1014.0 1014.0 1.6
17/10:30pm 15.6 16.1 15.1 97 0.3 NNE 6 9 3 5 1013.7 1013.7 1.6
17/10:00pm 15.1 15.2 14.5 96 0.3 NE 7 9 4 5 1013.5 1013.5 1.6
17/09:30pm 15.4 15.8 14.8 96 0.3 NE 6 7 3 4 1013.0 1013.0 1.6
17/09:00pm 15.2 15.5 14.4 95 0.5 NNW 6 9 3 5 1013.0 1013.0 1.4
17/08:30pm 16.8 15.7 16.3 97 0.3 ENE 17 28 9 15 1013.7 1013.7 0.2
17/08:00pm 16.8 16.5 16.5 98 0.2 SSE 13 15 7 8 1013.1 1013.1 0.0
17/07:30pm 17.3 17.1 16.8 97 0.3 SE 13 17 7 9 1012.8 1012.8 0.0
17/07:00pm 17.6 17.1 16.8 95 0.5 SSE 15 22 8 12 1012.3 1012.3 0.0
17/06:30pm 18.4 18.8 17.2 93 0.7 SSE 11 17 6 9 1012.1 1012.1 0.0
17/06:00pm 18.9 19.3 17.2 90 1.0 SSE 11 20 6 11 1011.8 1011.8 0.0
17/05:30pm 18.7 18.8 17.5 93 0.7 SE 13 19 7 10 1012.1 1012.1 0.0
17/05:00pm 19.1 18.6 17.8 92 0.8 SE 17 28 9 15 1012.3 1012.3 0.0
17/04:30pm 18.9 19.1 17.7 93 0.7 SE 13 19 7 10 1012.0 1012.0 0.0
17/04:00pm 19.1 18.2 17.8 92 0.8 SE 19 26 10 14 1012.2 1012.2 0.0
17/03:30pm 18.8 18.2 17.6 93 0.7 SE 17 22 9 12 1012.6 1012.6 0.0
17/03:00pm 18.7 18.2 17.9 95 0.5 ESE 17 26 9 14 1012.7 1012.7 0.0
17/02:30pm 18.3 18.0 17.3 94 0.6 SE 15 22 8 12 1012.7 1012.7 0.0
17/02:00pm 18.7 17.6 17.2 91 0.9 SE 19 24 10 13 1012.8 1012.8 0.0
17/01:30pm 19.6 19.3 18.3 92 0.8 SE 17 22 9 12 1013.0 1013.0 0.0
17/01:00pm 18.7 18.0 17.4 92 0.8 SE 17 22 9 12 1013.1 1013.1 0.0
17/12:30pm 19.0 18.9 17.8 93 0.7 SSE 15 19 8 10 1013.1 1013.1 0.0
17/12:00pm 19.9 19.9 18.9 94 0.6 SSE 17 20 9 11 1013.2 1013.2 0.0
17/11:30am 19.0 19.6 17.8 93 0.7 SSE 11 13 6 7 1013.3 1013.3 0.0
17/11:00am 19.8 21.9 19.3 97 0.3 SE 7 13 4 7 1013.4 1013.4 0.0
17/10:30am 19.4 21.5 19.4 100 0.0 SE 7 13 4 7 1013.5 1013.5 0.0
17/10:00am 17.8 18.8 17.8 100 0.0 ESE 9 13 5 7 1013.6 1013.6 0.0
17/09:30am 18.3 19.5 18.3 100 0.0 ESE 9 13 5 7 1013.4 1013.4 0.0
17/09:00am 17.5 18.8 17.5 100 0.0 E 7 11 4 6 1013.3 1013.3 5.8
17/08:30am 16.5 17.4 16.5 100 0.0 ESE 7 11 4 6 1013.1 1013.1 5.8
17/08:00am 16.3 17.1 16.3 100 0.0 E 7 11 4 6 1012.9 1012.9 5.8
17/07:30am 16.1 16.8 16.1 100 0.0 ESE 7 11 4 6 1012.6 1012.6 5.8
17/07:00am 15.9 15.8 15.9 100 0.0 SE 11 17 6 9 1012.5 1012.5 5.8
17/06:30am 15.7 15.9 15.7 100 0.0 ESE 9 13 5 7 1012.1 1012.1 5.8
17/06:00am 15.8 15.6 15.8 100 0.0 ESE 11 15 6 8 1011.7 1011.7 5.8
17/05:30am 15.7 15.5 15.7 100 0.0 ESE 11 17 6 9 1011.4 1011.4 5.8
17/05:00am 15.8 15.3 15.8 100 0.0 ESE 13 19 7 10 1011.3 1011.3 5.8
17/04:30am 15.8 15.3 15.8 100 0.0 ESE 13 19 7 10 1011.4 1011.4 5.8
17/04:00am 15.8 15.6 15.8 100 0.0 E 11 17 6 9 1011.4 1011.4 5.8
17/03:30am 15.9 14.6 15.9 100 0.0 E 17 24 9 13 1011.3 1011.3 5.8
17/03:00am 15.9 14.6 15.9 100 0.0 ESE 17 26 9 14 1011.4 1011.4 5.8
17/02:30am 15.8 14.5 15.8 100 0.0 ESE 17 26 9 14 1011.4 1011.4 5.8
17/02:00am 15.9 14.1 15.9 100 0.0 ESE 20 28 11 15 1011.5 1011.5 5.8
17/01:30am 16.0 14.2 16.0 100 0.0 ESE 20 30 11 16 1011.8 1011.8 5.8
17/01:00am 15.8 13.9 15.8 100 0.0 ESE 20 30 11 16 1011.8 1011.8 5.8
17/12:30am 15.8 14.1 15.8 100 0.0 ESE 19 28 10 15 1011.7 1011.7 5.8
17/12:00am 15.8 14.1 15.8 100 0.0 ESE 19 28 10 15 1011.6 1011.6 5.8
 
Date/Time
EDT
Temp
°C
App
Temp
°C
Dew
Point
°C
Rel
Hum
%
Delta-T
°C
Wind Press
QNH
hPa
Press
MSL
hPa
Rain since
9am
mm
Dir  Spd
km/h
Gust
km/h
Spd
kts
Gust
kts
16/11:30pm 16.0 14.4 16.0 100 0.0 ESE 19 32 10 17 1011.5 1011.5 5.8
16/11:00pm 16.2 13.7 16.2 100 0.0 ESE 24 32 13 17 1011.6 1011.6 5.8
16/10:30pm 16.5 14.1 16.5 100 0.0 ESE 24 33 13 18 1011.5 1011.5 5.8
16/10:00pm 16.2 13.7 16.2 100 0.0 ESE 24 32 13 17 1011.2 1011.2 5.8
16/09:30pm 16.0 12.7 16.0 100 0.0 ESE 28 37 15 20 1010.7 1010.7 5.8
16/09:00pm 16.1 12.4 16.1 100 0.0 ESE 30 39 16 21 1010.3 1010.3 5.8
16/08:30pm 16.1 12.8 16.1 100 0.0 ESE 28 39 15 21 1010.2 1010.2 5.8
16/08:00pm 16.1 12.4 16.1 100 0.0 SE 30 43 16 23 1009.9 1009.9 5.6
16/07:30pm 16.2 11.6 16.2 100 0.0 SE 35 50 19 27 1009.5 1009.5 5.6
16/07:00pm 16.4 11.8 16.2 99 0.1 SE 35 46 19 25 1009.3 1009.3 5.6
16/06:30pm 16.7 12.6 16.5 99 0.1 SE 33 44 18 24 1008.6 1008.6 5.6
16/06:00pm 17.0 13.3 17.0 100 0.0 SE 32 41 17 22 1008.7 1008.7 5.6
16/05:30pm 17.0 13.7 17.0 100 0.0 SE 30 41 16 22 1008.6 1008.6 5.6
16/05:00pm 17.9 15.0 17.9 100 0.0 SE 30 39 16 21 1008.4 1008.4 5.6
16/04:30pm 17.4 14.3 17.4 100 0.0 SE 30 39 16 21 1008.5 1008.5 5.6
16/04:00pm 16.6 13.1 16.6 100 0.0 SE 30 39 16 21 1008.7 1008.7 5.6
16/03:30pm 16.4 13.2 16.4 100 0.0 SE 28 37 15 20 1008.9 1008.9 5.6
16/03:00pm 16.2 12.2 16.2 100 0.0 SE 32 43 17 23 1009.2 1009.2 5.6
16/02:30pm 15.9 11.2 15.9 100 0.0 SE 35 48 19 26 1009.5 1009.5 5.6
16/02:00pm 15.9 10.1 15.9 100 0.0 SE 41 52 22 28 1009.6 1009.6 5.6
16/01:30pm 15.5 9.9 15.5 100 0.0 SE 39 52 21 28 1009.8 1009.8 5.4
16/01:00pm 15.6 10.0 15.6 100 0.0 SE 39 50 21 27 1009.9 1009.9 5.0
16/12:30pm 15.7 9.8 15.7 100 0.0 SE 41 56 22 30 1010.0 1010.0 5.0
16/12:00pm 15.5 9.5 15.5 100 0.0 SE 41 56 22 30 1010.3 1010.3 4.6
16/11:30am 15.4 10.1 15.4 100 0.0 SE 37 50 20 27 1010.6 1010.6 3.8
16/11:00am 15.3 10.0 15.3 100 0.0 SE 37 50 20 27 1010.6 1010.6 3.2
16/10:30am 15.2 8.5 15.2 100 0.0 SE 44 56 24 30 1010.6 1010.6 2.4
16/10:00am 15.1 9.4 15.1 100 0.0 SE 39 52 21 28 1010.5 1010.5 2.2
16/09:30am 15.1 9.0 15.1 100 0.0 SE 41 52 22 28 1010.6 1010.6 1.6
16/09:00am 14.9 8.1 14.9 100 0.0 SE 44 56 24 30 1010.8 1010.8 44.8
16/08:30am 14.8 7.6 14.8 100 0.0 SE 46 63 25 34 1010.7 1010.7 44.4
16/08:19am 14.8 8.0 14.8 100 0.0 SE 44 65 24 35 1010.7 1010.7 44.4
16/08:00am 14.8 7.6 14.8 100 0.0 SE 46 63 25 34 1010.4 1010.4 44.0
16/07:41am 14.7 8.4 14.7 100 0.0 SSE 41 59 22 32 1010.3 1010.3 42.8
16/07:30am 14.7 8.4 14.7 100 0.0 SSE 41 54 22 29 1010.4 1010.4 42.6
16/07:00am 14.5 6.8 14.5 100 0.0 SSE 48 65 26 35 1010.4 1010.4 42.2
16/06:30am 14.5 7.2 14.5 100 0.0 SSE 46 59 25 32 1010.2 1010.2 41.2
16/06:00am 14.5 7.2 14.5 100 0.0 SSE 46 61 25 33 1010.1 1010.1 38.2
16/05:30am 14.7 7.9 14.7 100 0.0 SSE 44 56 24 30 1009.8 1009.8 34.2
16/05:00am 14.8 8.9 14.8 100 0.0 SSE 39 54 21 29 1010.1 1010.1 30.8
16/04:30am 15.1 9.7 15.1 100 0.0 SSE 37 48 20 26 1010.2 1010.2 29.2
16/04:00am 15.0 10.0 15.0 100 0.0 SSE 35 46 19 25 1010.3 1010.3 28.0
16/03:30am 15.2 10.6 15.2 100 0.0 SSE 33 44 18 24 1010.4 1010.4 23.2
16/03:00am 15.4 12.6 15.4 100 0.0 SSE 24 35 13 19 1010.9 1010.9 19.4
16/02:30am 15.4 12.6 15.4 100 0.0 SSE 24 32 13 17 1010.9 1010.9 14.8
16/02:00am 15.3 12.5 15.3 100 0.0 SSE 24 32 13 17 1011.1 1011.1 11.2
16/01:30am 15.3 12.5 15.3 100 0.0 SSE 24 33 13 18 1011.8 1011.8 9.6
16/01:00am 15.1 11.4 15.1 100 0.0 SSE 28 39 15 21 1012.0 1012.0 8.4
16/12:30am 15.0 10.9 14.8 99 0.1 SSE 30 37 16 20 1012.4 1012.4 7.4
16/12:00am 14.9 10.7 14.7 99 0.1 SSE 30 39 16 21 1012.6 1012.6 6.6
 
Date/Time
EDT
Temp
°C
App
Temp
°C
Dew
Point
°C
Rel
Hum
%
Delta-T
°C
Wind Press
QNH
hPa
Press
MSL
hPa
Rain since
9am
mm
Dir  Spd
km/h
Gust
km/h
Spd
kts
Gust
kts
15/11:30pm 14.9 11.1 14.7 99 0.1 SSE 28 35 15 19 1013.3 1013.3 5.8
15/11:00pm 14.9 11.9 14.7 99 0.1 SSE 24 32 13 17 1013.5 1013.5 4.8
15/10:30pm 15.0 12.4 14.8 99 0.1 SSE 22 30 12 16 1014.0 1014.0 3.2
15/10:00pm 15.2 13.2 15.0 99 0.1 S 19 28 10 15 1013.8 1013.8 2.6
15/09:30pm 15.2 13.6 15.0 99 0.1 S 17 24 9 13 1013.8 1013.8 2.4
15/09:00pm 15.3 13.2 15.1 99 0.1 SSE 20 26 11 14 1013.3 1013.3 2.4
15/08:30pm 15.7 14.7 15.5 99 0.1 S 15 26 8 14 1012.7 1012.7 2.2
15/08:00pm 15.8 14.0 15.6 99 0.1 SSW 19 26 10 14 1011.6 1011.6 2.2
15/07:30pm 15.9 14.9 15.6 98 0.2 SW 15 20 8 11 1011.8 1011.8 2.0
15/07:00pm 16.3 15.1 16.0 98 0.2 SW 17 24 9 13 1010.8 1010.8 1.6
15/06:30pm 16.5 15.3 16.0 97 0.3 SSW 17 20 9 11 1010.5 1010.5 1.4
15/06:00pm 16.7 15.9 16.1 96 0.4 WSW 15 19 8 10 1011.1 1011.1 1.2
15/05:30pm 17.1 17.5 16.3 95 0.5 W 9 13 5 7 1011.9 1011.9 0.8
15/05:00pm 17.1 16.3 16.1 94 0.6 WSW 15 20 8 11 1011.7 1011.7 0.4
15/04:30pm 17.3 16.4 15.8 91 0.9 WSW 15 19 8 10 1011.6 1011.6 0.0
15/04:00pm 18.3 16.7 15.9 86 1.4 SW 19 24 10 13 1010.7 1010.7 0.0
15/03:30pm 20.3 19.8 17.7 85 1.6 WNW 17 24 9 13 1010.8 1010.8 0.0
15/03:00pm 20.0 20.0 17.2 84 1.7 W 13 20 7 11 1010.7 1010.7 0.0
15/02:30pm 19.4 17.9 16.2 82 1.9 W 19 26 10 14 1011.2 1011.2 0.0
15/02:00pm 20.4 18.6 15.4 73 3.0 WSW 19 32 10 17 1011.4 1011.4 0.0

Other Formats:

Comma delimited format used in spreadsheet applications
http://www.bom.gov.au/fwo/IDV60801/IDV60801.94830.axf

JavaScript Object Notation format (JSON) in row-major order
http://www.bom.gov.au/fwo/IDV60801/IDV60801.94830.json